createdAt,value
2017-11-27T00:01:47.870Z,2.00
2017-11-27T00:04:20.387Z,1.83
2017-11-27T00:06:53.697Z,2.20
2017-11-27T00:09:26.979Z,1.77
2017-11-27T00:11:59.391Z,1.90
2017-11-27T00:14:31.967Z,2.30
2017-11-27T00:17:04.523Z,1.97
2017-11-27T00:19:37.899Z,2.10
2017-11-27T00:22:10.493Z,1.80
2017-11-27T00:24:43.039Z,2.10
2017-11-27T00:27:16.477Z,2.13
2017-11-27T00:29:49.738Z,2.20
2017-11-27T00:32:23.046Z,2.00
2017-11-27T00:34:55.589Z,1.50
2017-11-27T00:37:28.202Z,1.67
2017-11-27T00:40:01.471Z,2.10
2017-11-27T00:42:34.592Z,2.00
2017-11-27T00:45:07.142Z,1.80
2017-11-27T00:47:40.446Z,2.40
2017-11-27T00:50:12.898Z,2.20
2017-11-27T00:52:45.365Z,2.00
2017-11-27T00:55:17.881Z,1.90
2017-11-27T00:57:50.503Z,1.90
2017-11-27T01:00:22.990Z,1.73
2017-11-27T01:02:55.525Z,2.07
2017-11-27T01:05:28.878Z,1.90
2017-11-27T01:08:01.366Z,1.50
2017-11-27T01:10:33.862Z,1.90
2017-11-27T01:13:06.442Z,1.80
2017-11-27T01:15:38.966Z,1.77
2017-11-27T01:18:11.442Z,2.10
2017-11-27T01:20:43.945Z,2.10
2017-11-27T01:23:16.498Z,1.63
2017-11-27T01:25:48.991Z,1.70
2017-11-27T01:28:21.506Z,1.80
2017-11-27T01:30:54.042Z,1.50
2017-11-27T01:33:26.641Z,1.80
2017-11-27T01:35:59.218Z,1.63
2017-11-27T01:38:31.777Z,1.97
2017-11-27T01:41:04.310Z,1.70
2017-11-27T01:43:36.948Z,1.97
2017-11-27T01:46:10.282Z,2.17
2017-11-27T01:48:43.605Z,1.83
2017-11-27T01:51:16.027Z,2.00
2017-11-27T01:53:49.350Z,1.57
2017-11-27T01:56:22.631Z,1.70
2017-11-27T01:58:55.145Z,1.67
2017-11-27T02:01:27.714Z,1.67
2017-11-27T02:04:00.241Z,1.60
2017-11-27T02:06:32.702Z,1.63
2017-11-27T02:09:05.250Z,1.67
2017-11-27T02:11:37.755Z,1.70
2017-11-27T02:14:10.330Z,1.50
2017-11-27T02:16:42.869Z,1.47
2017-11-27T02:19:16.143Z,1.63
2017-11-27T02:21:48.611Z,1.60
2017-11-27T02:24:21.131Z,1.80
2017-11-27T02:26:53.678Z,1.77
2017-11-27T02:29:26.240Z,1.53
2017-11-27T02:31:58.723Z,1.73
2017-11-27T02:34:32.109Z,1.70
2017-11-27T02:37:04.706Z,1.53
2017-11-27T02:39:37.251Z,1.40
2017-11-27T02:42:09.831Z,1.30
2017-11-27T02:44:42.418Z,1.60
2017-11-27T02:47:14.933Z,1.90
2017-11-27T02:49:48.287Z,1.63
2017-11-27T02:52:20.880Z,1.70
2017-11-27T02:54:53.484Z,1.60
2017-11-27T02:57:25.982Z,1.73
2017-11-27T02:59:58.602Z,1.77
2017-11-27T03:02:31.059Z,1.63
2017-11-27T03:05:04.494Z,1.50
2017-11-27T03:07:36.826Z,1.30
2017-11-27T03:10:09.459Z,1.60
2017-11-27T03:12:42.046Z,1.73
2017-11-27T03:15:15.366Z,1.30
2017-11-27T03:17:47.946Z,1.53
2017-11-27T03:20:20.545Z,1.50
2017-11-27T03:22:53.098Z,1.40
2017-11-27T03:25:26.374Z,1.40
2017-11-27T03:27:59.661Z,1.60
2017-11-27T03:30:32.158Z,1.70
2017-11-27T03:33:04.668Z,1.70
2017-11-27T03:35:38.026Z,1.50
2017-11-27T03:38:10.493Z,1.30
2017-11-27T03:40:43.870Z,1.47
2017-11-27T03:43:17.150Z,1.30
2017-11-27T03:45:49.723Z,1.17
2017-11-27T03:48:23.006Z,1.40
2017-11-27T03:50:55.542Z,1.30
2017-11-27T03:53:28.177Z,1.50
2017-11-27T03:56:00.708Z,1.57
2017-11-27T03:58:33.263Z,1.23
2017-11-27T04:01:05.763Z,1.40
2017-11-27T04:03:38.242Z,1.90
2017-11-27T04:06:10.822Z,1.40
2017-11-27T04:08:44.138Z,1.53
2017-11-27T04:11:16.630Z,1.50
2017-11-27T04:13:49.203Z,1.20
2017-11-27T04:16:21.835Z,1.80
2017-11-27T04:18:54.358Z,1.60
2017-11-27T04:21:26.910Z,1.57
2017-11-27T04:23:59.414Z,1.60
2017-11-27T04:26:32.810Z,1.40
2017-11-27T04:29:05.355Z,1.60
2017-11-27T04:31:37.775Z,1.57
2017-11-27T04:34:10.254Z,1.20
2017-11-27T04:36:42.872Z,1.60
2017-11-27T04:39:16.163Z,1.50
2017-11-27T04:41:48.707Z,1.63
2017-11-27T04:44:21.202Z,1.60
2017-11-27T04:46:53.807Z,1.33
2017-11-27T04:49:26.321Z,1.30
2017-11-27T04:51:58.850Z,1.50
2017-11-27T04:54:32.141Z,1.20
2017-11-27T04:57:04.709Z,1.30
2017-11-27T04:59:37.199Z,1.43
2017-11-27T05:02:10.593Z,1.40
2017-11-27T05:04:43.170Z,1.40
2017-11-27T05:07:15.682Z,1.40
2017-11-27T05:09:48.163Z,1.33
2017-11-27T05:12:22.229Z,1.40
2017-11-27T05:14:54.722Z,1.40
2017-11-27T05:17:28.102Z,1.50
2017-11-27T05:20:01.378Z,1.27
2017-11-27T05:22:33.896Z,1.40
2017-11-27T05:25:07.234Z,1.40
2017-11-27T05:27:39.891Z,1.33
2017-11-27T05:30:12.427Z,1.30
2017-11-27T05:32:44.983Z,1.63
2017-11-27T05:35:17.466Z,1.27
2017-11-27T05:37:50.102Z,1.57
2017-11-27T05:40:22.583Z,1.10
2017-11-27T05:42:55.102Z,1.60
2017-11-27T05:45:27.666Z,1.30
2017-11-27T05:48:00.178Z,1.30
2017-11-27T05:50:33.493Z,1.43
2017-11-27T05:53:06.830Z,1.20
2017-11-27T05:55:39.418Z,1.30
2017-11-27T05:58:12.010Z,1.50
2017-11-27T06:00:44.522Z,1.10
2017-11-27T06:03:17.062Z,1.50
2017-11-27T06:05:49.602Z,1.27
2017-11-27T06:08:22.220Z,1.40
2017-11-27T06:10:54.696Z,1.43
2017-11-27T06:13:27.262Z,1.50
2017-11-27T06:15:59.742Z,1.20
2017-11-27T06:18:32.359Z,1.23
2017-11-27T06:21:04.856Z,1.20
2017-11-27T06:23:37.413Z,1.30
2017-11-27T06:26:10.015Z,1.30
2017-11-27T06:28:42.597Z,1.40
2017-11-27T06:31:15.125Z,1.20
2017-11-27T06:33:47.749Z,1.20
2017-11-27T06:36:20.289Z,1.13
2017-11-27T06:38:53.705Z,1.23
2017-11-27T06:41:26.151Z,1.40
2017-11-27T06:43:58.693Z,1.17
2017-11-27T06:46:31.228Z,1.17
2017-11-27T06:49:03.593Z,1.10
2017-11-27T06:51:36.074Z,1.30
2017-11-27T06:54:08.658Z,1.37
2017-11-27T06:56:41.155Z,1.30
2017-11-27T06:59:14.490Z,1.40
2017-11-27T07:01:46.971Z,1.47
2017-11-27T07:04:20.290Z,1.40
2017-11-27T07:06:53.585Z,1.20
2017-11-27T07:09:26.054Z,1.20
2017-11-27T07:11:58.566Z,1.60
2017-11-27T07:14:30.977Z,1.20
2017-11-27T07:17:03.594Z,1.00
2017-11-27T07:19:36.082Z,1.50
2017-11-27T07:22:08.605Z,1.30
2017-11-27T07:24:41.229Z,1.40
2017-11-27T07:27:13.754Z,1.50
2017-11-27T07:29:46.377Z,1.40
2017-11-27T07:32:19.745Z,1.30
2017-11-27T07:34:52.225Z,1.13
2017-11-27T07:37:24.793Z,1.20
2017-11-27T07:39:57.265Z,1.03
2017-11-27T07:42:29.787Z,1.30
2017-11-27T07:45:02.388Z,1.43
2017-11-27T07:47:35.654Z,1.50
2017-11-27T07:50:08.157Z,1.30
2017-11-27T07:52:40.761Z,1.30
2017-11-27T07:55:13.359Z,1.00
2017-11-27T07:57:46.678Z,1.10
2017-11-27T08:00:19.210Z,1.37
2017-11-27T08:02:51.659Z,1.30
2017-11-27T08:05:24.950Z,1.43
2017-11-27T08:07:57.407Z,1.37
2017-11-27T08:10:29.862Z,1.40
2017-11-27T08:13:02.479Z,1.20
2017-11-27T08:15:35.870Z,1.10
2017-11-27T08:18:08.310Z,1.47
2017-11-27T08:20:41.722Z,1.40
2017-11-27T08:23:14.997Z,1.07
2017-11-27T08:25:48.305Z,1.30
2017-11-27T08:28:21.575Z,1.50
2017-11-27T08:30:54.112Z,1.33
2017-11-27T08:33:26.670Z,1.00
2017-11-27T08:35:59.226Z,1.40
2017-11-27T08:38:31.826Z,1.20
2017-11-27T08:41:04.402Z,1.30
2017-11-27T08:43:36.934Z,1.50
2017-11-27T08:46:09.599Z,0.90
2017-11-27T08:48:42.065Z,1.20
2017-11-27T08:51:14.593Z,1.40
2017-11-27T08:53:47.949Z,1.27
2017-11-27T08:56:20.573Z,1.30
2017-11-27T08:58:53.006Z,1.30
2017-11-27T09:01:25.606Z,1.43
2017-11-27T09:03:58.106Z,1.37
2017-11-27T09:06:30.591Z,1.20
2017-11-27T09:09:03.126Z,1.60
2017-11-27T09:11:35.737Z,1.03
2017-11-27T09:14:08.262Z,1.30
2017-11-27T09:16:40.893Z,1.40
2017-11-27T09:19:13.285Z,1.17
2017-11-27T09:21:45.815Z,1.30
2017-11-27T09:24:18.279Z,1.30
2017-11-27T09:26:50.834Z,1.27
2017-11-27T09:29:23.430Z,1.10
2017-11-27T09:31:55.994Z,1.20
2017-11-27T09:34:28.518Z,1.20
2017-11-27T09:37:01.079Z,1.10
2017-11-27T09:39:34.322Z,1.27
2017-11-27T09:42:06.734Z,1.60
2017-11-27T09:44:39.128Z,1.07
2017-11-27T09:47:11.729Z,1.20
2017-11-27T09:49:44.246Z,1.30
2017-11-27T09:52:16.698Z,1.10
2017-11-27T09:54:50.070Z,1.40
2017-11-27T09:57:22.606Z,1.17
2017-11-27T09:59:55.167Z,1.17
2017-11-27T10:02:27.727Z,1.23
2017-11-27T10:05:00.241Z,1.33
2017-11-27T10:07:32.657Z,1.20
2017-11-27T10:10:05.939Z,1.00
2017-11-27T10:12:39.198Z,1.17
2017-11-27T10:15:11.623Z,1.10
2017-11-27T10:17:44.107Z,1.40
2017-11-27T10:20:16.684Z,1.33
2017-11-27T10:22:49.193Z,1.40
2017-11-27T10:25:21.696Z,1.30
2017-11-27T10:27:54.055Z,1.10
2017-11-27T10:30:26.601Z,1.10
2017-11-27T10:32:59.118Z,0.90
2017-11-27T10:35:31.661Z,1.00
2017-11-27T10:38:04.261Z,1.10
2017-11-27T10:40:36.771Z,1.10
2017-11-27T10:43:09.305Z,0.97
2017-11-27T10:45:41.822Z,1.27
2017-11-27T10:48:14.414Z,1.00
2017-11-27T10:50:47.746Z,1.23
2017-11-27T10:53:20.079Z,1.20
2017-11-27T10:55:53.417Z,1.43
2017-11-27T10:58:25.977Z,1.03
2017-11-27T11:00:58.507Z,1.13
2017-11-27T11:03:31.073Z,1.20
2017-11-27T11:06:03.664Z,1.03
2017-11-27T11:08:36.950Z,1.20
2017-11-27T11:11:09.427Z,1.23
2017-11-27T11:13:42.702Z,1.50
2017-11-27T11:16:15.269Z,1.20
2017-11-27T11:18:47.643Z,1.00
2017-11-27T11:21:20.229Z,0.80
2017-11-27T11:23:52.811Z,1.20
2017-11-27T11:26:25.373Z,1.00
2017-11-27T11:28:57.834Z,1.00
2017-11-27T11:31:30.374Z,1.23
2017-11-27T11:34:02.717Z,1.40
2017-11-27T11:36:35.285Z,1.10
2017-11-27T11:39:07.837Z,1.10
2017-11-27T11:41:40.370Z,1.20
2017-11-27T11:44:12.779Z,1.40
2017-11-27T11:46:45.373Z,0.97
2017-11-27T11:49:17.933Z,1.30
2017-11-27T11:51:51.206Z,1.00
2017-11-27T11:54:24.530Z,0.90
2017-11-27T11:56:57.050Z,1.37
2017-11-27T11:59:29.610Z,1.20
2017-11-27T12:02:02.205Z,1.20
2017-11-27T12:04:34.769Z,1.17
2017-11-27T12:07:07.302Z,1.07
2017-11-27T12:09:39.866Z,1.10
2017-11-27T12:12:12.390Z,1.33
2017-11-27T12:14:44.954Z,1.20
2017-11-27T12:17:17.470Z,1.20
2017-11-27T12:19:50.013Z,1.10
2017-11-27T12:22:22.506Z,1.20
2017-11-27T12:24:55.810Z,1.17
2017-11-27T12:27:29.113Z,1.47
2017-11-27T12:30:01.575Z,1.50
2017-11-27T12:32:34.866Z,1.37
2017-11-27T12:35:08.182Z,1.10
2017-11-27T12:37:41.445Z,1.10
2017-11-27T12:40:13.973Z,1.13
2017-11-27T12:42:46.539Z,0.97
2017-11-27T12:45:19.114Z,1.03
2017-11-27T12:47:51.617Z,1.13
2017-11-27T12:50:24.194Z,1.27
2017-11-27T12:52:56.862Z,1.03
2017-11-27T12:55:29.353Z,1.20
2017-11-27T12:58:01.879Z,1.70
2017-11-27T13:00:34.426Z,1.20
2017-11-27T13:03:06.946Z,1.10
2017-11-27T13:05:39.591Z,1.40
2017-11-27T13:08:12.776Z,1.00
2017-11-27T13:10:45.355Z,1.17
2017-11-27T13:13:17.867Z,1.20
2017-11-27T13:15:50.406Z,0.90
2017-11-27T13:18:23.683Z,1.10
2017-11-27T13:20:56.087Z,0.90
2017-11-27T13:23:29.445Z,1.27
2017-11-27T13:26:02.018Z,0.90
2017-11-27T13:28:34.429Z,0.87
2017-11-27T13:31:06.809Z,1.30
2017-11-27T13:33:40.166Z,0.83
2017-11-27T13:36:13.479Z,1.10
2017-11-27T13:38:46.058Z,1.10
2017-11-27T13:41:18.662Z,1.37
2017-11-27T13:43:51.170Z,1.07
2017-11-27T13:46:23.546Z,1.20
2017-11-27T13:48:56.045Z,1.00
2017-11-27T13:51:28.649Z,1.20
2017-11-27T13:54:01.898Z,1.23
2017-11-27T13:56:34.415Z,1.37
2017-11-27T13:59:07.035Z,1.33
2017-11-27T14:01:39.533Z,1.17
2017-11-27T14:04:12.090Z,1.00
2017-11-27T14:06:45.498Z,1.20
2017-11-27T14:09:18.036Z,1.10
2017-11-27T14:11:50.579Z,1.30
2017-11-27T14:14:23.116Z,1.10
2017-11-27T14:16:55.692Z,0.80
2017-11-27T14:19:28.145Z,1.30
2017-11-27T14:22:00.678Z,1.00
2017-11-27T14:24:33.178Z,1.00
2017-11-27T14:27:05.732Z,1.00
2017-11-27T14:29:38.254Z,0.70
2017-11-27T14:32:10.867Z,1.10
2017-11-27T14:34:43.345Z,1.00
2017-11-27T14:37:15.903Z,1.17
2017-11-27T14:39:49.171Z,0.90
2017-11-27T14:42:21.734Z,0.97
2017-11-27T14:44:54.254Z,1.30
2017-11-27T14:47:26.839Z,1.23
2017-11-27T14:49:59.349Z,1.00
2017-11-27T14:52:31.919Z,0.90
2017-11-27T14:55:04.350Z,0.80
2017-11-27T14:57:36.954Z,1.00
2017-11-27T15:00:09.432Z,1.40
2017-11-27T15:02:41.890Z,1.10
2017-11-27T15:05:14.398Z,1.20
2017-11-27T15:07:46.950Z,1.03
2017-11-27T15:10:19.473Z,1.30
2017-11-27T15:12:52.107Z,1.10
2017-11-27T15:15:24.682Z,1.30
2017-11-27T15:17:57.233Z,1.07
2017-11-27T15:20:29.769Z,1.10
2017-11-27T15:23:02.331Z,1.10
2017-11-27T15:25:35.643Z,1.10
2017-11-27T15:28:08.156Z,1.27
2017-11-27T15:30:40.690Z,1.00
2017-11-27T15:33:13.119Z,1.27
2017-11-27T15:35:45.619Z,1.00
2017-11-27T15:38:18.944Z,1.30
2017-11-27T15:40:51.499Z,1.43
2017-11-27T15:43:24.066Z,1.03
2017-11-27T15:45:56.582Z,1.20
2017-11-27T15:48:29.165Z,1.10
2017-11-27T15:51:01.671Z,0.90
2017-11-27T15:53:34.126Z,0.90
2017-11-27T15:56:07.466Z,0.90
2017-11-27T15:58:40.795Z,1.00
2017-11-27T16:01:13.359Z,0.83
2017-11-27T16:03:45.983Z,1.50
2017-11-27T16:06:18.489Z,1.00
2017-11-27T16:08:51.074Z,1.03
2017-11-27T16:11:23.651Z,1.20
2017-11-27T16:13:56.090Z,1.00
2017-11-27T16:16:28.562Z,1.10
2017-11-27T16:19:01.093Z,1.23
2017-11-27T16:21:33.669Z,1.10
2017-11-27T16:24:06.227Z,1.23
2017-11-27T16:26:38.830Z,1.30
2017-11-27T16:29:11.319Z,0.90
2017-11-27T16:31:43.857Z,1.20
2017-11-27T16:34:17.141Z,1.10
2017-11-27T16:36:49.614Z,1.17
2017-11-27T16:39:22.137Z,1.30
2017-11-27T16:41:55.462Z,0.90
2017-11-27T16:44:28.784Z,1.03
2017-11-27T16:47:01.299Z,1.20
2017-11-27T16:49:33.849Z,1.27
2017-11-27T16:52:06.367Z,1.20
2017-11-27T16:54:38.946Z,1.10
2017-11-27T16:57:11.575Z,1.00
2017-11-27T16:59:44.850Z,1.20
2017-11-27T17:02:17.326Z,1.00
2017-11-27T17:04:49.898Z,1.00
2017-11-27T17:07:22.415Z,1.10
2017-11-27T17:09:54.897Z,1.10
2017-11-27T17:12:28.119Z,1.20
2017-11-27T17:15:00.690Z,0.90
2017-11-27T17:17:33.255Z,1.10
2017-11-27T17:20:05.794Z,1.30
2017-11-27T17:22:39.125Z,1.90
2017-11-27T17:25:11.494Z,1.20
2017-11-27T17:27:44.790Z,1.27
2017-11-27T17:30:17.303Z,1.10
2017-11-27T17:32:49.883Z,1.40
2017-11-27T17:35:22.482Z,1.70
2017-11-27T17:37:55.107Z,1.43
2017-11-27T17:40:27.645Z,1.20
2017-11-27T17:43:00.113Z,1.30
2017-11-27T17:45:33.447Z,1.63
2017-11-27T17:48:05.910Z,1.47
2017-11-27T17:50:39.230Z,1.20
2017-11-27T17:53:11.805Z,1.70
2017-11-27T17:55:44.315Z,1.50
2017-11-27T17:58:17.639Z,1.40
2017-11-27T18:00:50.171Z,1.30
2017-11-27T18:03:22.724Z,1.37
2017-11-27T18:05:55.298Z,1.07
2017-11-27T18:08:27.889Z,1.13
2017-11-27T18:11:00.418Z,1.00
2017-11-27T18:13:34.440Z,1.37
2017-11-27T18:16:06.986Z,1.33
2017-11-27T18:18:39.488Z,1.20
2017-11-27T18:21:12.033Z,1.30
2017-11-27T18:23:44.557Z,1.27
2017-11-27T18:26:17.132Z,1.17
2017-11-27T18:28:49.698Z,0.87
2017-11-27T18:31:22.294Z,1.10
2017-11-27T18:33:54.849Z,1.50
2017-11-27T18:36:27.403Z,1.53
2017-11-27T18:38:59.908Z,1.43
2017-11-27T18:41:32.438Z,1.40
2017-11-27T18:44:05.744Z,1.20
2017-11-27T18:46:38.279Z,1.10
2017-11-27T18:49:10.778Z,1.13
2017-11-27T18:51:43.382Z,1.07
2017-11-27T18:54:15.834Z,1.23
2017-11-27T18:56:48.367Z,1.57
2017-11-27T18:59:20.981Z,1.37
2017-11-27T19:01:53.531Z,1.20
2017-11-27T19:04:26.028Z,1.30
2017-11-27T19:06:59.358Z,1.20
2017-11-27T19:09:31.891Z,1.10
2017-11-27T19:12:04.424Z,1.40
2017-11-27T19:14:36.991Z,1.37
2017-11-27T19:17:09.550Z,0.93
2017-11-27T19:19:42.809Z,1.10
2017-11-27T19:22:15.362Z,1.20
2017-11-27T19:24:47.854Z,1.10
2017-11-27T19:27:20.421Z,1.57
2017-11-27T19:29:53.735Z,1.30
2017-11-27T19:32:26.276Z,1.10
2017-11-27T19:34:58.817Z,1.13
2017-11-27T19:37:32.094Z,1.17
2017-11-27T19:40:04.654Z,1.10
2017-11-27T19:42:37.983Z,1.30
2017-11-27T19:45:10.590Z,1.17
2017-11-27T19:47:43.942Z,1.10
2017-11-27T19:50:16.470Z,1.33
2017-11-27T19:52:49.814Z,1.20
2017-11-27T19:55:23.170Z,1.30
2017-11-27T19:57:55.591Z,1.00
2017-11-27T20:00:28.876Z,1.10
2017-11-27T20:03:01.469Z,0.90
2017-11-27T20:05:33.918Z,1.07
2017-11-27T20:08:06.531Z,1.27
2017-11-27T20:10:39.769Z,1.30
2017-11-27T20:13:12.262Z,1.10
2017-11-27T20:15:44.735Z,1.20
2017-11-27T20:18:18.022Z,1.13
2017-11-27T20:20:51.290Z,1.23
2017-11-27T20:23:24.629Z,1.20
2017-11-27T20:25:57.979Z,1.00
2017-11-27T20:28:30.549Z,1.00
2017-11-27T20:31:03.039Z,1.20
2017-11-27T20:33:36.242Z,1.20
2017-11-27T20:36:08.761Z,0.90
2017-11-27T20:38:41.409Z,1.00
2017-11-27T20:41:13.986Z,1.43
2017-11-27T20:43:46.546Z,1.10
2017-11-27T20:46:19.805Z,0.97
2017-11-27T20:48:52.318Z,1.20
2017-11-27T20:51:24.798Z,1.30
2017-11-27T20:53:57.409Z,1.00
2017-11-27T20:56:30.727Z,1.03
2017-11-27T20:59:03.242Z,1.33
2017-11-27T21:01:35.765Z,0.97
2017-11-27T21:04:09.095Z,1.10
2017-11-27T21:06:41.535Z,1.13
2017-11-27T21:09:14.845Z,1.07
2017-11-27T21:11:48.022Z,1.00
2017-11-27T21:14:21.325Z,1.30
2017-11-27T21:16:54.597Z,1.00
2017-11-27T21:19:27.118Z,1.10
2017-11-27T21:21:59.694Z,1.10
2017-11-27T21:24:32.254Z,0.83
2017-11-27T21:27:04.711Z,0.77
2017-11-27T21:29:37.058Z,1.10
2017-11-27T21:32:09.584Z,0.90
2017-11-27T21:34:42.149Z,0.73
2017-11-27T21:37:15.415Z,0.90
2017-11-27T21:39:48.722Z,0.90
2017-11-27T21:42:21.258Z,1.10
2017-11-27T21:44:53.723Z,0.90
2017-11-27T21:47:26.221Z,1.13
2017-11-27T21:49:59.526Z,1.00
2017-11-27T21:52:32.810Z,0.90
2017-11-27T21:55:05.377Z,0.77
2017-11-27T21:57:37.895Z,1.10
2017-11-27T22:00:10.479Z,0.93
2017-11-27T22:02:42.953Z,0.90
2017-11-27T22:05:15.602Z,1.07
2017-11-27T22:07:48.049Z,0.87
2017-11-27T22:10:21.374Z,0.97
2017-11-27T22:12:53.830Z,1.10
2017-11-27T22:15:26.476Z,1.00
2017-11-27T22:17:59.069Z,1.03
2017-11-27T22:20:32.394Z,0.93
2017-11-27T22:23:04.867Z,1.00
2017-11-27T22:25:37.426Z,1.00
2017-11-27T22:28:09.977Z,0.80
2017-11-27T22:30:42.482Z,1.07
2017-11-27T22:33:14.987Z,1.10
2017-11-27T22:35:48.362Z,1.10
2017-11-27T22:38:21.631Z,1.00
2017-11-27T22:40:54.106Z,1.00
2017-11-27T22:43:26.735Z,0.83
2017-11-27T22:45:59.338Z,1.10
2017-11-27T22:48:31.916Z,1.00
2017-11-27T22:51:05.252Z,1.00
2017-11-27T22:53:37.742Z,0.90
2017-11-27T22:56:11.129Z,1.00
2017-11-27T22:58:44.409Z,1.40
2017-11-27T23:01:16.958Z,0.87
2017-11-27T23:03:50.258Z,1.20
2017-11-27T23:06:23.562Z,1.00
2017-11-27T23:08:56.015Z,0.90
2017-11-27T23:11:28.549Z,0.97
2017-11-27T23:14:01.054Z,1.00
2017-11-27T23:16:33.559Z,0.80
2017-11-27T23:19:06.129Z,1.00
2017-11-27T23:21:39.446Z,0.87
2017-11-27T23:24:12.701Z,1.50
2017-11-27T23:26:45.263Z,0.87
2017-11-27T23:29:18.573Z,0.80
2017-11-27T23:31:51.078Z,0.93
2017-11-27T23:34:23.682Z,1.00
2017-11-27T23:36:56.221Z,1.30
2017-11-27T23:39:29.581Z,0.80
2017-11-27T23:42:02.081Z,0.80
2017-11-27T23:44:35.363Z,1.07
2017-11-27T23:47:07.893Z,1.03
2017-11-27T23:49:40.417Z,1.20
2017-11-27T23:52:13.715Z,0.90
2017-11-27T23:54:46.977Z,0.87
2017-11-27T23:57:20.310Z,0.93
2017-11-27T23:59:52.994Z,0.87
